Portada
METAR-TAF:

METAR-TAF

Aeroports :

Siem Reap, Cambodja

latitud: 13-22N, longitud: 103-51E, altitud: 15 m

Observació

L'informe es va fer fa 27 minuts, a les 14:00 UTC
Vent 5 kt del Sud
Temperatura 28°C
Humitat 84%
Pressió 1006 hPa
Visibilitat: 9000 m
Núvols disperses a una alçada de 1500 ft
Núvols disperses a una alçada de 4000 ft

METAR: VDSR 141400Z 18005KT 9000 SCT015 SCT040 28/25 Q1006

Hora: 21:27 (14:27 UTC)

Pronòstic

L'informe es va fer fa 3 hores i 27 minuts, a les 11:00 UTC
Pronòstic vàlid del 14 a les 12 UTC al 15 a les 06 UTC
Vent 6 kt del Sud/Sud-Oest
Visibilitat 10 km o més
Núvols disperses a una alçada de 1700 ft
Temporalment
l' 14 a les 11 UTC al 14 a les 16 UTC
Núvols disperses a una alçada de 1500 ft
Escasses núvols a una alçada de 1700 ft, Cumulonimbus.
Núvols disperses a una alçada de 4000 ft
tempesta

TAF: VDSR 141100Z 1412/1506 21006KT 9999 SCT017 TEMPO 1411/1416 TS SCT015 FEW017CB SCT040

Observacions i pronòstics meteorològics de més de 4000 aeroports (METAR i TAF).

Les estacions disponibles són els punts grocs i vermells al mapa.

Posi el ratolí al punt desitjat per veure el nom de l'estació.

Feu clic per veure les observacions i els pronòstics meteorològics.

Per canviar el mapa: feu clic els botons verds amb una creu de color negre per apropar; al botó verd amb un guió per allunyar la imatge; o en les fletxes verdes per a mapes adjacents.


METAR-TAF: